Los Lunas ASC

2020-09-27 21:30:00

  • imperial
Date Time Air Temperature Relative Humidity Dewpoint Windchill Heat Index Wind Speed Wind Dir. Rain Solar Radiation Soil Temperature
2m 2m 3m 3m 10cm
US/Mountain F % F F F MPH deg in MJ/m^2 F
max avg avg
2020-09-26 21:40:00 74.1 16.5 25.8 74.1 74.1 2.4 4.6 3.1 227.4 253.7 0.00 0.0000000 80.2
2020-09-26 21:45:00 74.6 16.3 25.8 74.6 74.6 3.0 4.4 3.0 255.3 267.4 0.00 0.0000000 80.0
2020-09-26 21:50:00 74.9 16.0 25.7 74.9 74.9 2.8 4.2 2.7 302.5 263.1 0.00 0.0000000 79.9
2020-09-26 21:55:00 74.9 16.1 25.8 74.9 74.9 2.2 4.0 2.7 199.4 266.9 0.00 0.0000000 79.8
2020-09-26 22:00:00 74.4 16.3 25.7 74.4 74.4 1.9 3.8 2.6 288.0 242.1 0.00 0.0000000 79.7
2020-09-26 22:05:00 73.8 17.2 26.5 73.8 73.8 2.8 3.5 2.6 273.8 245.5 0.00 0.0000000 79.6
2020-09-26 22:10:00 73.4 17.1 26.0 73.4 73.4 0.8 3.1 1.9 235.1 238.1 0.00 0.0000000 79.4
2020-09-26 22:15:00 69.7 28.2 35.3 69.7 69.7 2.8 3.5 1.7 50.4 41.7 0.00 0.0000000 79.3
2020-09-26 22:20:00 67.2 29.8 34.5 67.2 67.2 0.8 3.1 1.9 100.4 86.2 0.00 0.0000000 79.2
2020-09-26 22:25:00 66.1 27.3 31.4 66.1 66.1 1.7 1.9 0.8 165.8 117.1 0.00 0.0000000 79.1
2020-09-26 22:30:00 66.1 27.3 31.4 66.1 66.1 0.0 1.9 0.7 104.7 130.6 0.00 0.0000000 79.0
2020-09-26 22:35:00 65.8 27.6 31.4 65.8 65.8 1.3 1.5 0.8 200.1 184.6 0.00 0.0000000 78.9
2020-09-26 22:40:00 65.1 30.5 33.3 65.1 65.1 2.2 2.2 1.5 207.0 187.5 0.00 0.0000000 78.8
2020-09-26 22:45:00 64.6 28.8 31.4 64.6 64.6 2.2 2.4 1.8 197.6 199.8 0.00 0.0000000 78.6
2020-09-26 22:50:00 64.4 32.1 33.9 64.4 64.4 0.0 2.6 1.8 189.1 211.6 0.00 0.0000000 78.5
2020-09-26 22:55:00 63.8 33.8 34.8 63.8 63.8 1.0 2.1 1.0 201.3 225.8 0.00 0.0000000 78.4
2020-09-26 23:00:00 63.2 32.3 33.1 63.2 63.2 1.9 2.8 1.8 308.1 212.1 0.00 0.0000000 78.3
2020-09-26 23:05:00 63.2 31.0 32.0 63.2 63.2 1.5 4.0 2.3 225.4 217.7 0.00 0.0000000 78.2
2020-09-26 23:10:00 63.7 30.3 31.9 63.7 63.7 2.2 2.8 2.1 149.9 204.0 0.00 0.0000000 78.1
2020-09-26 23:15:00 63.7 30.8 32.4 63.7 63.7 2.1 3.5 2.1 167.7 167.1 0.00 0.0000000 78.0
2020-09-26 23:20:00 63.7 30.0 31.6 63.7 63.7 1.9 3.8 2.1 106.3 162.1 0.00 0.0000000 77.9
2020-09-26 23:25:00 63.6 31.2 32.6 63.6 63.6 0.0 1.7 0.8 147.6 94.4 0.00 0.0000000 77.8
2020-09-26 23:30:00 62.8 33.3 33.5 62.8 62.8 1.9 1.9 0.4 343.4 96.8 0.00 0.0000000 77.6
2020-09-26 23:35:00 62.1 34.0 33.4 62.1 62.1 1.7 1.7 1.4 190.5 122.5 0.00 0.0000000 77.5
2020-09-26 23:40:00 62.2 34.0 33.5 62.2 62.2 1.0 2.6 1.7 278.9 193.4 0.00 0.0000000 77.4
2020-09-26 23:45:00 61.9 34.3 33.4 61.9 61.9 0.0 2.2 0.7 6.5 55.6 0.00 0.0000000 77.3
2020-09-26 23:50:00 61.2 36.9 34.7 61.2 61.2 0.0 0.0 0.0 181.1 0.0 0.00 0.0000000 77.2
2020-09-26 23:55:00 60.7 37.3 34.4 60.7 60.7 1.9 1.9 0.4 75.0 71.3 0.00 0.0000000 77.1
2020-09-27 00:00:00 60.2 37.2 33.9 60.2 60.2 1.5 2.1 1.5 90.4 96.0 0.00 0.0000000 77.0
2020-09-27 00:05:00 60.4 36.0 33.3 60.4 60.4 1.9 2.4 1.2 58.2 120.2 0.00 0.0000000 76.9
2020-09-27 00:10:00 60.8 36.5 34.1 60.8 60.8 2.2 2.8 1.6 266.8 222.5 0.00 0.0000000 76.8
2020-09-27 00:15:00 60.8 37.1 34.4 60.8 60.8 0.0 1.9 0.5 245.1 241.4 0.00 0.0000000 76.6
2020-09-27 00:20:00 60.5 38.9 35.3 60.5 60.5 0.8 0.8 0.1 102.5 104.2 0.00 0.0000000 76.6
2020-09-27 00:25:00 60.2 38.7 35.0 60.2 60.2 1.3 1.7 0.7 72.9 92.5 0.00 0.0000000 76.4
2020-09-27 00:30:00 59.9 36.5 33.2 59.9 59.9 0.0 2.8 1.1 31.0 63.2 0.00 0.0000000 76.4
2020-09-27 00:35:00 60.1 39.8 35.6 60.1 60.1 0.0 0.0 0.0 85.3 0.0 0.00 0.0000000 76.2
2020-09-27 00:40:00 59.9 39.3 35.1 59.9 59.9 1.0 1.5 0.3 176.3 185.7 0.00 0.0000000 76.1
2020-09-27 00:45:00 60.1 38.6 34.8 60.1 60.1 2.1 2.1 1.5 189.2 187.9 0.00 0.0000000 76.0
2020-09-27 00:50:00 59.7 39.2 34.8 59.7 59.7 0.0 2.6 1.5 154.0 168.4 0.00 0.0000000 75.9
2020-09-27 00:55:00 59.3 43.2 37.0 59.3 59.3 0.0 0.8 0.0 171.0 180.4 0.00 0.0000000 75.8
2020-09-27 01:00:00 59.3 41.7 36.1 59.3 59.3 1.2 2.1 0.9 169.5 178.5 0.00 0.0000000 75.7
2020-09-27 01:05:00 59.3 38.9 34.3 59.3 59.3 1.5 2.1 1.4 164.2 159.3 0.00 0.0000000 75.6
2020-09-27 01:10:00 59.3 41.8 36.1 59.3 59.3 1.0 2.1 1.3 202.3 175.0 0.00 0.0000000 75.5
2020-09-27 01:15:00 59.3 41.7 36.1 59.3 59.3 1.9 1.9 0.9 202.7 208.0 0.00 0.0000000 75.5
2020-09-27 01:20:00 59.7 37.2 33.5 59.7 59.7 2.6 3.5 2.2 188.0 190.7 0.00 0.0000000 75.3
2020-09-27 01:25:00 60.3 36.7 33.7 60.3 60.3 1.2 3.1 2.2 162.0 168.9 0.00 0.0000000 75.3
2020-09-27 01:30:00 60.2 38.8 35.0 60.2 60.2 2.2 2.2 0.8 183.9 174.6 0.00 0.0000000 75.1
2020-09-27 01:35:00 59.6 36.5 33.0 59.6 59.6 0.0 2.2 1.7 140.6 168.1 0.00 0.0000000 75.1
2020-09-27 01:40:00 59.9 36.9 33.5 59.9 59.9 2.2 2.6 1.6 343.5 36.2 0.00 0.0000000 75.0
2020-09-27 01:45:00 63.8 27.0 29.1 63.8 63.8 1.3 3.0 1.7 1.9 349.8 0.00 0.0000000 74.9
2020-09-27 01:50:00 66.3 25.2 29.6 66.3 66.3 2.6 3.0 1.3 293.0 278.0 0.00 0.0000000 74.8
2020-09-27 01:55:00 67.0 24.6 29.7 67.0 67.0 3.0 3.5 1.5 297.8 293.1 0.00 0.0000000 74.7
2020-09-27 02:00:00 69.9 22.3 29.7 69.9 69.9 2.2 5.3 2.8 299.6 289.2 0.00 0.0000000 74.6
2020-09-27 02:05:00 70.9 21.5 29.6 70.9 70.9 5.5 7.4 3.5 298.9 297.6 0.00 0.0000000 74.5
2020-09-27 02:10:00 71.2 22.0 30.4 71.2 71.2 3.0 5.8 2.9 285.5 278.4 0.00 0.0000000 74.5
2020-09-27 02:15:00 71.1 22.3 30.6 71.1 71.1 4.4 5.3 3.5 146.5 251.7 0.00 0.0000000 74.4
2020-09-27 02:20:00 70.6 23.3 31.3 70.6 70.6 2.4 4.7 3.3 222.0 237.1 0.00 0.0000000 74.3
2020-09-27 02:25:00 71.3 22.9 31.5 71.3 71.3 3.7 9.2 4.3 281.4 249.4 0.00 0.0000000 74.2
2020-09-27 02:30:00 72.2 23.5 32.9 72.2 72.2 3.8 8.1 5.1 297.0 269.6 0.00 0.0000000 74.2
2020-09-27 02:35:00 72.4 22.7 32.2 72.4 72.4 3.3 10.8 5.7 293.6 264.7 0.00 0.0000000 74.0
2020-09-27 02:40:00 72.6 22.6 32.2 72.6 72.6 4.6 9.0 5.8 238.4 268.6 0.00 0.0000000 74.0
2020-09-27 02:45:00 72.4 23.0 32.5 72.4 72.4 4.4 10.3 4.5 286.0 270.8 0.00 0.0000000 73.9
2020-09-27 02:50:00 72.1 23.9 33.2 72.1 72.1 3.0 9.2 4.9 271.6 277.4 0.00 0.0000000 73.9
2020-09-27 02:55:00 71.6 24.3 33.2 71.6 71.6 4.0 7.8 5.1 226.9 277.5 0.00 0.0000000 73.8
2020-09-27 03:00:00 71.2 24.5 33.1 71.2 71.2 5.6 9.0 5.0 307.9 265.8 0.00 0.0000000 73.8
2020-09-27 03:05:00 70.9 24.9 33.2 70.9 70.9 7.1 7.1 4.6 234.8 272.8 0.00 0.0000000 73.7
2020-09-27 03:10:00 71.0 24.9 33.3 71.0 71.0 4.7 10.8 5.9 258.3 261.7 0.00 0.0000000 73.7
2020-09-27 03:15:00 71.0 25.3 33.7 71.0 71.0 6.7 9.6 5.8 294.3 264.9 0.00 0.0000000 73.6
2020-09-27 03:20:00 71.0 25.1 33.5 71.0 71.0 5.1 8.1 5.2 265.7 270.2 0.00 0.0000000 73.5
2020-09-27 03:25:00 71.0 25.2 33.6 71.0 71.0 6.3 9.6 5.9 293.2 270.6 0.00 0.0000000 73.5
2020-09-27 03:30:00 70.9 26.0 34.3 70.9 70.9 4.0 10.1 5.6 284.3 263.5 0.00 0.0000000 73.4
2020-09-27 03:35:00 70.9 25.6 33.8 70.9 70.9 6.2 9.7 5.5 343.9 273.2 0.00 0.0000000 73.4
2020-09-27 03:40:00 70.4 26.2 34.0 70.4 70.4 6.5 11.0 4.8 247.6 253.9 0.00 0.0000000 73.3
2020-09-27 03:45:00 70.4 26.0 33.9 70.4 70.4 5.8 9.2 5.4 274.3 258.8 0.00 0.0000000 73.3
2020-09-27 03:50:00 70.0 26.6 34.1 70.0 70.0 2.8 6.9 5.0 239.5 258.7 0.00 0.0000000 73.3
2020-09-27 03:55:00 69.7 27.1 34.3 69.7 69.7 4.2 7.4 4.2 277.1 263.1 0.00 0.0000000 73.2
2020-09-27 04:00:00 69.4 27.3 34.2 69.4 69.4 4.2 6.5 4.2 311.8 254.1 0.00 0.0000000 73.1
2020-09-27 04:05:00 69.0 27.4 33.9 69.0 69.0 3.3 6.9 4.3 247.5 251.4 0.00 0.0000000 73.1
2020-09-27 04:10:00 68.8 27.1 33.5 68.8 68.8 5.1 5.5 4.2 239.7 250.8 0.00 0.0000000 73.1
2020-09-27 04:15:00 68.6 26.9 33.2 68.6 68.6 4.2 7.8 4.5 249.6 256.3 0.00 0.0000000 73.0
2020-09-27 04:20:00 68.9 26.7 33.2 68.9 68.9 5.3 7.1 5.2 241.5 250.3 0.00 0.0000000 73.0
2020-09-27 04:25:00 69.1 26.6 33.3 69.1 69.1 5.6 8.0 5.5 263.0 238.8 0.00 0.0000000 72.9
2020-09-27 04:30:00 69.0 26.8 33.4 69.0 69.0 5.6 7.1 5.2 252.6 236.2 0.00 0.0000000 72.9
2020-09-27 04:35:00 68.5 28.0 34.1 68.5 68.5 2.6 6.2 4.3 220.3 236.0 0.00 0.0000000 72.8
2020-09-27 04:40:00 67.8 28.4 33.8 67.8 67.8 1.3 4.0 1.7 101.4 179.4 0.00 0.0000000 72.8
2020-09-27 04:45:00 66.7 31.7 35.6 66.7 66.7 1.9 3.0 1.9 122.3 81.5 0.00 0.0000000 72.7
2020-09-27 04:50:00 64.5 34.3 35.7 64.5 64.5 1.5 4.0 1.8 73.1 95.2 0.00 0.0000000 72.7
2020-09-27 04:55:00 63.7 34.8 35.4 63.7 63.7 2.2 3.1 1.6 155.2 297.2 0.00 0.0000000 72.6
2020-09-27 05:00:00 62.9 37.0 36.2 62.9 62.9 0.0 2.1 0.7 277.7 303.5 0.00 0.0000000 72.6
2020-09-27 05:05:00 62.0 37.5 35.7 62.0 62.0 0.0 1.3 0.4 60.9 16.7 0.00 0.0000000 72.5
2020-09-27 05:10:00 61.1 39.3 36.1 61.1 61.1 0.0 1.2 0.2 231.5 232.2 0.00 0.0000000 72.4
2020-09-27 05:15:00 60.8 39.1 35.7 60.8 60.8 1.9 2.4 1.3 16.1 57.1 0.00 0.0000000 72.4
2020-09-27 05:20:00 60.3 39.7 35.7 60.3 60.3 0.8 2.6 1.0 72.3 325.5 0.00 0.0000000 72.3
2020-09-27 05:25:00 60.3 41.8 37.0 60.3 60.3 2.4 2.4 1.2 162.6 36.9 0.00 0.0000000 72.2
2020-09-27 05:30:00 59.6 41.7 36.3 59.6 59.6 1.7 2.4 1.5 47.5 73.2 0.00 0.0000000 72.2
2020-09-27 05:35:00 59.2 41.2 35.6 59.2 59.2 1.2 1.9 1.2 262.3 1.2 0.00 0.0000000 72.1
2020-09-27 05:40:00 59.3 43.2 36.9 59.3 59.3 1.3 1.7 0.9 337.1 157.5 0.00 0.0000000 72.1
2020-09-27 05:45:00 58.9 41.6 35.6 58.9 58.9 0.0 2.2 0.8 339.8 257.9 0.00 0.0000000 72.0
2020-09-27 05:50:00 59.3 44.6 37.7 59.3 59.3 1.7 2.4 1.5 210.8 268.8 0.00 0.0000000 71.9
2020-09-27 05:55:00 59.3 42.5 36.6 59.3 59.3 0.0 2.2 1.4 223.4 250.5 0.00 0.0000000 71.9
2020-09-27 06:00:00 59.0 42.5 36.3 59.0 59.0 0.0 2.6 1.0 97.0 348.1 0.00 0.0000000 71.8
2020-09-27 06:05:00 58.5 45.5 37.5 58.5 58.5 1.2 1.2 0.2 165.9 172.3 0.00 0.0000000 71.7
2020-09-27 06:10:00 58.3 46.0 37.6 58.3 58.3 1.9 1.9 0.8 217.6 188.2 0.00 0.0000000 71.7
2020-09-27 06:15:00 58.0 44.9 36.7 58.0 58.0 0.8 1.7 0.8 107.6 261.2 0.00 0.0000000 71.6
2020-09-27 06:20:00 58.2 44.8 36.9 58.2 58.2 1.7 2.1 1.3 311.9 184.0 0.00 0.0000000 71.5
2020-09-27 06:25:00 57.6 46.6 37.3 57.6 57.6 1.5 3.1 2.0 204.7 221.9 0.00 0.0000000 71.4
2020-09-27 06:30:00 57.2 44.6 35.8 57.2 57.2 1.0 3.3 2.1 208.4 260.5 0.00 0.0000000 71.4
2020-09-27 06:35:00 57.0 45.9 36.3 57.0 57.0 1.7 1.9 1.5 60.8 325.3 0.00 0.0000000 71.3
2020-09-27 06:40:00 56.0 47.6 36.4 56.0 56.0 1.0 3.1 2.0 173.2 55.8 0.00 0.0000000 71.2
2020-09-27 06:45:00 56.5 47.4 36.8 56.5 56.5 2.4 2.4 1.1 242.1 155.5 0.00 0.0010000 71.2
2020-09-27 06:50:00 56.7 49.5 38.0 56.7 56.7 2.2 3.0 1.6 247.1 252.7 0.00 0.0020000 71.1
2020-09-27 06:55:00 56.2 49.3 37.5 56.2 56.2 2.2 2.8 1.9 167.9 221.3 0.00 0.0050000 71.0
2020-09-27 07:00:00 55.7 48.7 36.7 55.7 55.7 0.0 2.4 1.6 176.1 258.4 0.00 0.0040000 71.0
2020-09-27 07:05:00 55.3 51.7 37.9 55.3 55.3 1.3 2.6 1.6 156.1 205.9 0.00 0.0080000 70.9
2020-09-27 07:10:00 55.3 47.7 35.8 55.3 55.3 2.6 2.6 1.6 239.3 222.1 0.00 0.0110000 70.8
2020-09-27 07:15:00 55.1 50.1 36.8 55.1 55.1 0.0 2.6 1.4 237.7 275.4 0.00 0.0150000 70.7
2020-09-27 07:20:00 55.0 49.3 36.4 55.0 55.0 2.6 2.8 1.8 242.3 247.0 0.00 0.0210000 70.7
2020-09-27 07:25:00 55.2 51.9 37.8 55.2 55.2 0.0 2.4 1.8 72.9 206.9 0.00 0.0260000 70.6
2020-09-27 07:30:00 54.7 50.0 36.4 54.7 54.7 0.0 0.8 0.0 18.5 319.0 0.00 0.0280000 70.5
2020-09-27 07:35:00 54.7 51.9 37.4 54.7 54.7 0.0 0.0 0.0 265.2 0.0 0.00 0.0280000 70.5
2020-09-27 07:40:00 54.6 52.3 37.5 54.6 54.6 0.0 0.0 0.0 265.2 0.0 0.00 0.0290000 70.4
2020-09-27 07:45:00 54.8 51.3 37.2 54.8 54.8 0.0 1.0 0.2 24.0 323.2 0.00 0.0310000 70.3
2020-09-27 07:50:00 55.6 51.2 37.8 55.6 55.6 0.0 1.2 0.3 236.4 228.3 0.00 0.0360000 70.3
2020-09-27 07:55:00 56.2 50.7 38.2 56.2 56.2 1.5 1.9 0.8 192.4 222.2 0.00 0.0390000 70.2
2020-09-27 08:00:00 57.0 47.8 37.3 57.0 57.0 0.0 1.3 0.3 110.5 160.4 0.00 0.0400000 70.1
2020-09-27 08:05:00 58.2 45.6 37.3 58.2 58.2 1.3 1.7 0.4 205.4 200.0 0.00 0.0420000 70.1
2020-09-27 08:10:00 58.7 45.7 37.8 58.7 58.7 1.3 1.9 1.4 200.2 215.5 0.00 0.1730000 70.1
2020-09-27 08:15:00 59.3 48.0 39.6 59.3 59.3 1.9 2.4 1.8 210.3 219.2 0.00 0.1510000 70.0
2020-09-27 08:20:00 59.8 44.5 38.1 59.8 59.8 1.0 1.7 0.7 215.9 216.4 0.00 0.1620000 69.9
2020-09-27 08:25:00 60.4 42.9 37.7 60.4 60.4 0.0 1.9 0.8 189.8 213.7 0.00 0.1520000 69.9
2020-09-27 08:30:00 60.8 40.6 36.7 60.8 60.8 0.0 0.8 0.0 226.2 226.0 0.00 0.2440000 69.9
2020-09-27 08:35:00 61.6 45.0 40.0 61.6 61.6 1.7 1.9 1.0 191.2 214.0 0.00 0.2600000 69.8
2020-09-27 08:40:00 62.8 39.2 37.7 62.8 62.8 1.3 1.7 1.0 213.7 223.1 0.00 0.2730000 69.8
2020-09-27 08:45:00 64.1 35.5 36.2 64.1 64.1 3.3 3.3 1.9 231.9 223.3 0.00 0.2920000 69.7
2020-09-27 08:50:00 64.8 40.7 40.4 64.8 64.8 1.5 3.3 1.8 232.5 208.4 0.00 0.3020000 69.7
2020-09-27 08:55:00 65.9 34.3 37.0 65.9 65.9 1.5 1.5 0.5 188.0 201.2 0.00 0.3210000 69.7
2020-09-27 09:00:00 66.8 39.3 41.3 66.8 66.8 1.5 2.4 1.4 240.0 196.6 0.00 0.3390000 69.7
2020-09-27 09:05:00 67.6 38.1 41.1 67.6 67.6 1.7 1.7 1.0 226.5 236.2 0.00 0.3460000 69.6
2020-09-27 09:10:00 67.5 35.7 39.4 67.5 67.5 2.1 3.0 2.0 186.0 190.3 0.00 0.3540000 69.6
2020-09-27 09:15:00 68.5 38.4 42.2 68.5 68.5 1.0 2.8 1.2 274.8 246.0 0.00 0.3770000 69.6
2020-09-27 09:20:00 69.5 32.2 38.5 69.5 69.5 1.2 1.9 0.9 232.8 220.6 0.00 0.3920000 69.6
2020-09-27 09:25:00 69.4 33.9 39.7 69.4 69.4 1.7 2.6 1.9 235.2 215.6 0.00 0.3680000 69.6
2020-09-27 09:30:00 70.6 36.6 42.8 70.6 70.6 0.8 1.9 0.6 245.3 237.3 0.00 0.4150000 69.7
2020-09-27 09:35:00 71.5 30.0 38.4 71.5 71.5 0.0 1.2 0.3 190.2 233.1 0.00 0.4350000 69.7
2020-09-27 09:40:00 72.2 31.4 40.2 72.2 72.2 0.0 2.1 0.4 204.1 187.9 0.00 0.4410000 69.7
2020-09-27 09:45:00 73.0 32.9 42.1 73.0 73.0 1.7 2.2 1.0 213.2 188.3 0.00 0.4500000 69.8
2020-09-27 09:50:00 73.0 31.6 41.1 73.0 73.0 0.0 1.5 0.9 196.8 204.5 0.00 0.4480000 69.9
2020-09-27 09:55:00 74.5 31.1 42.0 74.5 74.5 0.0 1.5 0.5 123.2 111.4 0.00 0.4810000 70.0
2020-09-27 10:00:00 76.2 24.8 37.6 76.2 76.2 2.6 2.6 0.2 177.4 175.6 0.00 0.4950000 70.1
2020-09-27 10:05:00 76.5 24.3 37.3 76.5 76.5 2.2 3.0 1.0 164.6 93.6 0.00 0.5140000 70.3
2020-09-27 10:10:00 76.5 22.2 35.0 76.5 76.5 1.3 3.8 2.2 187.5 170.3 0.00 0.5290000 70.4
2020-09-27 10:15:00 77.2 26.9 40.5 77.2 77.2 0.0 2.2 0.9 195.3 172.1 0.00 0.5390000 70.6
2020-09-27 10:20:00 78.6 22.3 36.9 78.6 78.6 2.4 2.6 0.9 172.8 161.7 0.00 0.5610000 70.7
2020-09-27 10:25:00 79.1 21.5 36.5 79.1 79.1 1.2 2.6 1.1 63.4 100.3 0.00 0.5730000 70.9
2020-09-27 10:30:00 79.2 21.2 36.2 79.2 79.2 1.9 3.5 2.1 194.0 94.8 0.00 0.5850000 71.1
2020-09-27 10:35:00 79.6 19.6 34.5 79.6 79.6 0.8 3.0 1.5 174.7 180.4 0.00 0.5890000 71.3
2020-09-27 10:40:00 79.5 18.6 33.1 79.5 79.5 0.0 3.7 2.0 42.8 258.1 0.00 0.6050000 71.6
2020-09-27 10:45:00 80.6 17.1 31.8 80.6 80.6 4.9 7.4 4.3 294.6 326.5 0.00 0.5860000 71.8
2020-09-27 10:50:00 81.2 15.2 29.5 81.2 81.2 5.1 7.6 4.5 320.2 330.0 0.00 0.6100000 72.0
2020-09-27 10:55:00 80.9 15.5 29.7 80.9 80.9 4.4 8.3 4.4 292.9 253.9 0.00 0.6320000 72.2
2020-09-27 11:00:00 81.3 15.8 30.6 81.3 81.3 4.4 7.8 4.2 219.8 264.4 0.00 0.6310000 72.5
2020-09-27 11:05:00 81.7 14.4 28.6 81.7 81.7 4.7 10.3 4.9 281.2 281.8 0.00 0.6500000 72.7
2020-09-27 11:10:00 82.1 15.1 30.0 82.1 82.1 1.9 6.5 3.6 305.4 284.8 0.00 0.6550000 73.0
2020-09-27 11:15:00 82.4 13.8 28.1 82.4 82.4 3.3 6.3 3.9 72.0 293.2 0.00 0.6680000 73.2
2020-09-27 11:20:00 82.9 15.0 30.5 82.9 82.9 4.7 8.7 3.9 319.1 288.6 0.00 0.6760000 73.5
2020-09-27 11:25:00 83.9 16.3 33.4 83.9 83.9 2.6 6.3 1.8 42.6 297.5 0.00 0.6850000 73.7
2020-09-27 11:30:00 84.0 15.6 32.3 84.0 84.0 2.1 6.2 3.0 213.2 343.4 0.00 0.6840000 74.0
2020-09-27 11:35:00 83.2 13.8 28.7 83.2 83.2 3.1 6.5 3.8 285.6 264.5 0.00 0.6850000 74.2
2020-09-27 11:40:00 83.6 15.7 32.2 83.6 83.6 3.5 5.5 2.6 258.9 235.7 0.00 0.6980000 74.5
2020-09-27 11:45:00 83.7 13.2 27.9 83.7 83.7 8.5 10.1 3.8 285.6 289.4 0.00 0.7110000 74.7
2020-09-27 11:50:00 84.5 12.8 27.8 84.5 84.5 2.4 5.3 3.4 244.4 331.2 0.00 0.7150000 75.0
2020-09-27 11:55:00 84.9 15.0 32.0 84.9 84.9 1.3 8.0 4.1 300.6 345.4 0.00 0.7220000 75.3
2020-09-27 12:00:00 83.3 13.9 28.9 83.3 83.3 1.7 12.4 5.0 288.5 238.9 0.00 0.7190000 75.5
2020-09-27 12:05:00 84.2 12.7 27.5 84.2 84.2 6.5 8.8 4.8 232.2 255.8 0.00 0.7230000 75.8
2020-09-27 12:10:00 84.7 14.6 31.4 84.7 84.7 3.3 6.5 3.3 237.7 254.4 0.00 0.7370000 76.1
2020-09-27 12:15:00 85.3 16.7 35.1 85.3 85.3 2.2 7.8 3.6 229.9 293.4 0.00 0.7380000 76.4
2020-09-27 12:20:00 86.2 15.0 33.1 86.2 86.2 4.2 6.5 3.9 256.2 310.8 0.00 0.7480000 76.6
2020-09-27 12:25:00 85.7 13.0 29.2 85.7 85.7 6.7 9.6 5.6 59.0 349.4 0.00 0.7390000 76.9
2020-09-27 12:30:00 85.6 13.2 29.4 85.6 85.6 4.0 11.0 5.1 290.0 333.2 0.00 0.7380000 77.2
2020-09-27 12:35:00 85.2 11.4 25.5 85.2 85.2 7.1 8.1 5.3 245.5 252.1 0.00 0.7420000 77.4
2020-09-27 12:40:00 85.3 11.8 26.6 85.3 85.3 3.3 5.1 3.3 288.0 268.6 0.00 0.7380000 77.7
2020-09-27 12:45:00 86.5 11.9 27.7 86.5 86.5 3.7 9.7 4.4 295.8 302.9 0.00 0.7610000 78.0
2020-09-27 12:50:00 87.5 14.0 32.5 87.5 87.5 4.0 5.8 3.5 298.4 307.4 0.00 0.7430000 78.2
2020-09-27 12:55:00 87.0 11.5 27.2 87.0 87.0 2.6 7.8 4.2 233.2 329.4 0.00 0.7250000 78.5
2020-09-27 13:00:00 87.1 13.2 30.6 87.1 87.1 2.4 8.3 4.1 27.4 285.0 0.00 0.7410000 78.8
2020-09-27 13:05:00 87.4 11.0 26.3 87.4 87.4 4.0 8.3 4.9 13.8 321.7 0.00 0.7480000 79.0
2020-09-27 13:10:00 87.7 11.8 28.5 87.7 87.7 7.8 10.3 4.7 41.9 346.6 0.00 0.7540000 79.3
2020-09-27 13:15:00 87.7 11.7 28.1 87.7 87.7 3.8 6.5 4.1 13.2 348.2 0.00 0.7520000 79.5
2020-09-27 13:20:00 88.1 11.6 28.3 88.1 88.1 6.0 8.5 4.5 25.9 339.5 0.00 0.7290000 79.8
2020-09-27 13:25:00 87.7 12.6 30.0 87.7 87.7 4.9 9.0 5.1 18.5 299.7 0.00 0.7430000 80.0
2020-09-27 13:30:00 88.5 11.0 27.2 88.5 88.5 4.4 8.8 4.0 266.0 334.5 0.00 0.7350000 80.3
2020-09-27 13:35:00 87.7 10.3 25.1 87.7 87.7 3.8 11.0 5.6 331.1 8.2 0.00 0.7400000 80.5
2020-09-27 13:40:00 88.3 12.5 30.3 88.3 88.3 3.7 8.0 4.0 290.2 329.2 0.00 0.7330000 80.7
2020-09-27 13:45:00 88.2 10.3 25.4 88.2 88.2 2.4 8.1 4.7 256.1 277.8 0.00 0.7390000 81.0
2020-09-27 13:50:00 88.2 12.1 29.3 88.2 88.2 1.7 10.1 2.6 89.7 250.8 0.00 0.7390000 81.2
2020-09-27 13:55:00 88.6 11.7 28.9 88.6 88.6 3.7 5.1 2.6 32.9 36.2 0.00 0.7300000 81.4
2020-09-27 14:00:00 89.1 11.1 27.8 89.1 89.1 4.2 6.0 3.8 315.7 14.1 0.00 0.7250000 81.7
2020-09-27 14:05:00 89.2 10.8 27.3 89.2 89.2 6.9 9.4 5.9 17.1 23.9 0.00 0.7170000 81.9
2020-09-27 14:10:00 88.8 12.9 31.5 88.8 88.8 3.3 8.3 5.3 51.6 9.1 0.00 0.7130000 82.1
2020-09-27 14:15:00 89.1 11.0 27.8 89.1 89.1 4.2 4.9 3.2 287.7 15.0 0.00 0.7000000 82.3
2020-09-27 14:20:00 89.1 12.8 31.6 89.1 89.1 4.9 9.4 6.1 40.1 20.9 0.00 0.6960000 82.6
2020-09-27 14:25:00 88.7 10.6 26.5 88.7 88.7 6.9 9.4 6.5 324.7 32.9 0.00 0.6930000 82.8
2020-09-27 14:30:00 89.3 11.1 28.0 89.3 89.3 7.6 9.2 6.1 34.5 5.9 0.00 0.6910000 83.0
2020-09-27 14:35:00 89.7 11.4 29.0 89.7 89.7 3.5 8.3 5.3 304.0 8.1 0.00 0.6760000 83.2
2020-09-27 14:40:00 89.5 10.2 26.3 89.5 89.5 4.7 10.6 5.3 254.8 351.5 0.00 0.6690000 83.4
2020-09-27 14:45:00 89.9 10.1 26.4 89.9 89.9 6.3 8.0 5.4 283.1 11.3 0.00 0.6590000 83.6
2020-09-27 14:50:00 90.4 9.9 26.3 90.4 90.4 4.0 6.3 4.1 26.1 8.5 0.00 0.6530000 83.8
2020-09-27 14:55:00 89.7 10.9 28.1 89.7 89.7 3.0 8.0 4.3 42.5 22.1 0.00 0.6460000 83.9
2020-09-27 15:00:00 90.1 11.0 28.6 90.1 90.1 7.6 7.6 3.1 319.5 349.5 0.00 0.6360000 84.1
2020-09-27 15:05:00 90.2 10.6 27.8 90.2 90.2 3.1 8.1 5.1 260.2 11.8 0.00 0.6270000 84.3
2020-09-27 15:10:00 90.2 12.7 32.2 90.2 90.2 1.7 4.0 2.3 342.9 231.7 0.00 0.6160000 84.5
2020-09-27 15:15:00 90.1 11.5 29.6 90.1 90.1 3.8 7.4 3.4 271.6 282.1 0.00 0.6070000 84.7
2020-09-27 15:20:00 90.8 10.6 28.1 90.8 90.8 7.6 9.9 5.9 56.3 353.8 0.00 0.5940000 84.8
2020-09-27 15:25:00 90.5 10.3 27.3 90.5 90.5 3.1 10.3 6.3 333.4 353.7 0.00 0.5850000 85.0
2020-09-27 15:30:00 90.7 9.3 25.0 90.7 90.7 5.3 6.9 4.8 2.0 349.5 0.00 0.5740000 85.1
2020-09-27 15:35:00 90.5 9.9 26.3 90.5 90.5 3.0 7.1 4.0 256.1 318.4 0.00 0.5640000 85.2
2020-09-27 15:40:00 90.6 9.9 26.2 90.6 90.6 4.0 9.0 4.1 38.9 21.6 0.00 0.5510000 85.4
2020-09-27 15:45:00 91.1 11.9 31.2 91.1 91.1 5.8 6.3 3.6 89.3 24.0 0.00 0.5390000 85.5
2020-09-27 15:50:00 90.1 11.0 28.5 90.1 90.1 3.5 16.2 6.6 297.7 234.9 0.00 0.5030000 85.7
2020-09-27 15:55:00 90.9 10.9 28.9 90.9 90.9 4.2 7.1 4.1 301.1 286.5 0.00 0.0600000 85.8
2020-09-27 16:00:00 90.9 10.6 28.3 90.9 90.9 6.5 6.9 4.3 50.5 22.9 0.00 0.4970000 85.9
2020-09-27 16:05:00 91.1 11.1 29.5 91.1 91.1 3.0 10.1 4.0 342.8 331.1 0.00 0.4900000 86.0
2020-09-27 16:10:00 91.2 10.7 28.8 91.2 91.2 6.2 8.1 4.6 332.0 313.7 0.00 0.4710000 86.1
2020-09-27 16:15:00 90.8 10.8 28.5 90.8 90.8 4.0 14.6 5.2 17.2 329.8 0.00 0.4570000 86.2
2020-09-27 16:20:00 90.6 10.9 28.8 90.6 90.6 5.3 12.8 5.0 235.9 349.3 0.00 0.4440000 86.3
2020-09-27 16:25:00 90.3 10.9 28.5 90.3 90.3 5.3 10.5 5.3 327.8 310.1 0.00 0.4290000 86.4
2020-09-27 16:30:00 90.4 10.8 28.4 90.4 90.4 5.3 10.1 5.4 325.9 3.7 0.00 0.4160000 86.4
2020-09-27 16:35:00 90.6 11.3 29.6 90.6 90.6 4.2 8.8 4.7 222.5 333.8 0.00 0.3990000 86.5
2020-09-27 16:40:00 90.1 12.1 30.8 90.1 90.1 3.3 7.8 3.9 20.4 334.5 0.00 0.3850000 86.5
2020-09-27 16:45:00 90.0 10.8 28.0 90.0 90.0 6.0 10.6 5.5 42.4 16.6 0.00 0.3680000 86.6
2020-09-27 16:50:00 89.5 10.9 27.8 89.5 89.5 4.2 11.9 6.4 2.1 16.8 0.00 0.3520000 86.7
2020-09-27 16:55:00 90.1 10.7 27.8 90.1 90.1 4.6 7.2 4.5 5.2 338.2 0.00 0.3400000 86.7
2020-09-27 17:00:00 90.0 10.5 27.3 90.0 90.0 4.0 5.1 3.6 42.0 334.9 0.00 0.3210000 86.7
2020-09-27 17:05:00 90.1 11.0 28.5 90.1 90.1 3.7 7.2 4.1 15.2 344.4 0.00 0.0740000 86.8
2020-09-27 17:10:00 89.5 11.8 29.7 89.5 89.5 4.2 7.2 4.2 63.6 9.2 0.00 0.0450000 86.8
2020-09-27 17:15:00 88.7 13.5 32.4 88.7 88.7 3.1 4.7 3.4 15.9 34.3 0.00 0.0440000 86.7
2020-09-27 17:20:00 88.9 10.9 27.5 88.9 88.9 3.0 3.5 2.2 314.6 284.1 0.00 0.0420000 86.7
2020-09-27 17:25:00 88.8 11.7 29.0 88.8 88.8 5.1 5.5 3.6 74.0 340.4 0.00 0.0400000 86.7
2020-09-27 17:30:00 88.4 11.2 27.6 88.4 88.4 2.2 5.6 3.3 0.0 356.7 0.00 0.0390000 86.6
2020-09-27 17:35:00 88.6 11.5 28.5 88.6 88.6 1.9 4.4 2.1 284.9 324.8 0.00 0.0380000 86.6
2020-09-27 17:40:00 88.2 12.5 30.2 88.2 88.2 3.3 4.4 1.3 292.6 353.6 0.00 0.0370000 86.5
2020-09-27 17:45:00 88.1 12.6 30.3 88.1 88.1 4.0 4.7 3.3 10.3 348.1 0.00 0.0350000 86.5
2020-09-27 17:50:00 86.7 13.6 31.0 86.7 86.7 3.3 5.3 3.8 32.9 33.4 0.00 0.0330000 86.3
2020-09-27 17:55:00 86.2 14.2 31.9 86.2 86.2 3.5 5.5 3.7 27.3 32.9 0.00 0.0310000 86.3
2020-09-27 18:00:00 86.3 12.3 28.3 86.3 86.3 4.2 8.3 4.4 28.8 31.3 0.00 0.0300000 86.1
2020-09-27 18:05:00 86.7 12.2 28.4 86.7 86.7 2.1 4.4 2.8 84.3 16.5 0.00 0.0280000 86.0
2020-09-27 18:10:00 86.5 12.2 28.3 86.5 86.5 0.0 9.9 3.0 26.6 15.7 0.00 0.0270000 85.9
2020-09-27 18:15:00 86.5 11.8 27.5 86.5 86.5 2.2 3.8 1.8 280.5 290.8 0.00 0.0280000 85.8
2020-09-27 18:20:00 86.3 12.9 29.4 86.3 86.3 1.3 1.5 0.8 334.4 329.7 0.00 0.0230000 85.7
2020-09-27 18:25:00 85.5 12.2 27.5 85.5 85.5 3.0 4.9 1.4 309.9 323.9 0.00 0.0210000 85.5
2020-09-27 18:30:00 85.3 12.7 28.3 85.3 85.3 3.0 5.6 3.8 21.5 12.7 0.00 0.0190000 85.4
2020-09-27 18:35:00 84.6 12.6 27.6 84.6 84.6 3.8 6.7 4.2 22.6 26.9 0.00 0.0170000 85.3
2020-09-27 18:40:00 84.2 13.2 28.4 84.2 84.2 4.0 7.2 5.1 37.4 30.2 0.00 0.0140000 85.1
2020-09-27 18:45:00 83.4 13.5 28.3 83.4 83.4 4.0 4.4 3.7 41.0 31.2 0.00 0.0100000 85.0
2020-09-27 18:50:00 82.6 14.0 28.6 82.6 82.6 2.8 6.0 3.6 22.1 28.6 0.00 0.0070000 84.9
2020-09-27 18:55:00 82.3 13.6 27.6 82.3 82.3 3.8 3.8 2.9 24.2 23.1 0.00 0.0040000 84.8
2020-09-27 19:00:00 81.9 13.5 27.1 81.9 81.9 3.3 4.7 3.2 40.2 27.6 0.00 0.0020000 84.6
2020-09-27 19:05:00 81.2 14.4 28.2 81.2 81.2 3.3 4.9 3.6 17.0 26.7 0.00 0.0010000 84.5
2020-09-27 19:10:00 80.6 13.9 26.9 80.6 80.6 4.6 6.3 3.8 31.0 22.5 0.00 0.0010000 84.3
2020-09-27 19:15:00 80.2 14.6 27.6 80.2 80.2 2.1 4.6 3.5 2.9 23.4 0.00 0.0000000 84.2
2020-09-27 19:20:00 79.7 14.7 27.5 79.7 79.7 2.8 5.1 3.6 25.8 23.9 0.00 0.0000000 84.1
2020-09-27 19:25:00 79.7 14.8 27.6 79.7 79.7 4.0 4.4 2.9 5.0 24.1 0.00 0.0000000 83.9
2020-09-27 19:30:00 78.9 15.0 27.3 78.9 78.9 3.0 4.2 3.0 339.8 19.1 0.00 0.0000000 83.8
2020-09-27 19:35:00 78.8 15.8 28.4 78.8 78.8 1.7 3.8 2.8 324.6 12.2 0.00 0.0000000 83.6
2020-09-27 19:40:00 78.1 15.6 27.6 78.1 78.1 4.6 4.6 2.4 3.5 11.5 0.00 0.0000000 83.5
2020-09-27 19:45:00 77.5 16.2 28.0 77.5 77.5 2.1 3.5 2.3 34.3 15.1 0.00 0.0000000 83.3
2020-09-27 19:50:00 76.9 16.2 27.6 76.9 76.9 3.0 3.5 2.5 31.6 14.5 0.00 0.0000000 83.2
2020-09-27 19:55:00 77.7 16.0 27.9 77.7 77.7 4.9 4.9 3.3 16.6 20.0 0.00 0.0000000 83.1
2020-09-27 20:00:00 78.0 16.0 28.1 78.0 78.0 5.1 5.3 4.0 12.3 26.1 0.00 0.0000000 82.9
2020-09-27 20:05:00 78.9 15.8 28.5 78.9 78.9 4.9 7.4 5.3 37.9 14.5 0.00 0.0000000 82.8
2020-09-27 20:10:00 79.5 16.2 29.7 79.5 79.5 3.7 7.1 4.7 23.5 23.2 0.00 0.0000000 82.7
2020-09-27 20:15:00 78.7 16.4 29.4 78.7 78.7 4.2 5.1 4.2 3.7 25.4 0.00 0.0000000 82.5
2020-09-27 20:20:00 78.4 16.4 29.1 78.4 78.4 3.5 5.3 4.1 31.6 18.3 0.00 0.0000000 82.4
2020-09-27 20:25:00 77.2 17.5 29.7 77.2 77.2 3.8 4.6 3.6 3.9 23.3 0.00 0.0000000 82.3
2020-09-27 20:30:00 76.8 17.7 29.6 76.8 76.8 2.2 4.6 3.2 338.9 28.8 0.00 0.0000000 82.1
2020-09-27 20:35:00 74.8 19.5 30.5 74.8 74.8 2.2 2.8 2.3 50.3 44.1 0.00 0.0000000 82.0
2020-09-27 20:40:00 73.3 20.6 30.5 73.3 73.3 2.1 2.6 2.0 54.0 52.6 0.00 0.0000000 81.9
2020-09-27 20:45:00 72.2 22.0 31.3 72.2 72.2 0.0 2.1 1.1 94.1 60.7 0.00 0.0000000 81.7
2020-09-27 20:50:00 70.6 24.8 32.8 70.6 70.6 1.9 1.9 1.3 141.0 91.5 0.00 0.0000000 81.6
2020-09-27 20:55:00 69.2 26.5 33.4 69.2 69.2 0.0 2.2 1.1 92.8 137.2 0.00 0.0000000 81.5
2020-09-27 21:00:00 68.6 29.1 35.1 68.6 68.6 0.0 0.8 0.1 197.7 180.2 0.00 0.0000000 81.3
2020-09-27 21:05:00 67.8 31.6 36.6 67.8 67.8 1.3 2.1 1.0 186.5 171.5 0.00 0.0000000 81.2
2020-09-27 21:10:00 67.1 32.7 36.8 67.1 67.1 2.1 2.2 1.3 173.5 188.0 0.00 0.0000000 81.1
2020-09-27 21:15:00 66.7 32.7 36.4 66.7 66.7 2.2 2.2 1.6 296.6 208.3 0.00 0.0000000 81.0
2020-09-27 21:20:00 66.7 33.2 36.8 66.7 66.7 2.1 3.0 1.9 162.7 205.0 0.00 0.0000000 80.8
2020-09-27 21:25:00 66.2 35.4 38.0 66.2 66.2 1.9 2.8 1.6 224.8 164.3 0.00 0.0000000 80.7
2020-09-27 21:30:00 66.1 33.6 36.6 66.1 66.1 1.2 1.9 1.1 255.1 262.0 0.00 0.0000000 80.6

Data is courtesy of the NM Climate Center. DO NOT USE IN LEGAL PROCEEDINGS.